Time;durP1;ratioP1;P1;durP2;ratioP2;P2;SDS_P1;SDS_P2;PMS_P1;PMS_P2;Temp;Humidity;BMP_temperature;BMP_pressure;BME280_temperature;BME280_humidity;BME280_pressure;Samples;Min_cycle;Max_cycle;Signal;HPM_P1;HPM_P2
2022/01/09 00:01:50;;;;;;;3.97;3.13;;;;;;;1.52;100.00;96878.13;5054470;28;20223;-87
2022/01/09 00:04:19;;;;;;;3.87;3.00;;;;;;;1.56;100.00;96870.94;5090806;28;20223;-88
2022/01/09 00:06:50;;;;;;;3.57;2.83;;;;;;;1.56;100.00;96852.69;5034257;28;20329;-87
2022/01/09 00:09:21;;;;;;;5.03;3.07;;;;;;;1.59;100.00;96849.88;5035502;28;20290;-88
2022/01/09 00:11:51;;;;;;;3.40;2.70;;;;;;;1.59;100.00;96837.66;4983863;28;20194;-87
2022/01/09 00:14:20;;;;;;;5.10;2.80;;;;;;;1.55;100.00;96830.16;5015417;28;20228;-88
2022/01/09 00:16:51;;;;;;;5.23;2.80;;;;;;;1.61;100.00;96829.72;5030689;28;20205;-86
2022/01/09 00:19:19;;;;;;;3.43;2.80;;;;;;;1.63;100.00;96812.19;5033511;28;20252;-85
2022/01/09 00:21:48;;;;;;;3.03;2.57;;;;;;;1.63;100.00;96820.88;5033678;28;20220;-87
2022/01/09 00:24:16;;;;;;;5.60;2.73;;;;;;;1.67;100.00;96811.91;5036911;28;20694;-86
2022/01/09 00:26:45;;;;;;;4.13;3.23;;;;;;;1.68;100.00;96805.75;5093567;28;20362;-87
2022/01/09 00:29:16;;;;;;;3.37;2.73;;;;;;;1.72;100.00;96799.38;5105069;28;20230;-86
2022/01/09 00:31:45;;;;;;;5.30;2.70;;;;;;;1.73;100.00;96784.56;5109598;28;20224;-88
2022/01/09 00:34:15;;;;;;;3.53;2.70;;;;;;;1.80;100.00;96777.19;5108160;28;20241;-87
2022/01/09 00:36:43;;;;;;;3.60;2.63;;;;;;;1.81;100.00;96782.28;5075174;28;20195;-86
2022/01/09 00:39:12;;;;;;;3.20;2.87;;;;;;;1.76;100.00;96787.00;5070541;28;20200;-90
2022/01/09 00:41:41;;;;;;;4.30;3.00;;;;;;;1.87;100.00;96771.44;5073578;28;20204;-89
2022/01/09 00:44:09;;;;;;;3.97;3.40;;;;;;;1.84;100.00;96776.06;5072750;28;20270;-88
2022/01/09 00:46:44;;;;;;;3.33;2.73;;;;;;;1.85;100.00;96769.88;5036521;28;20190;-88
2022/01/09 00:49:13;;;;;;;4.97;2.93;;;;;;;1.84;100.00;96763.00;5034794;28;20301;-89
2022/01/09 00:51:42;;;;;;;3.87;3.30;;;;;;;1.86;100.00;96751.50;5041100;28;20256;-87
2022/01/09 00:54:11;;;;;;;4.40;2.97;;;;;;;1.90;100.00;96750.34;5031410;28;20202;-90
2022/01/09 00:56:39;;;;;;;6.30;3.73;;;;;;;1.94;100.00;96758.81;5032978;28;20633;-89
2022/01/09 00:59:08;;;;;;;7.00;4.27;;;;;;;1.92;100.00;96742.41;5058246;28;20220;-88
2022/01/09 01:01:36;;;;;;;4.07;3.37;;;;;;;1.95;100.00;96734.41;5050663;28;20201;-89
2022/01/09 01:04:05;;;;;;;5.70;3.50;;;;;;;1.97;100.00;96732.50;5065681;28;20681;-86
2022/01/09 01:06:33;;;;;;;6.97;3.40;;;;;;;2.00;100.00;96735.72;5104266;28;20199;-86
2022/01/09 01:09:06;;;;;;;4.43;3.30;;;;;;;2.04;100.00;96735.53;5130161;28;20264;-84
2022/01/09 01:11:34;;;;;;;4.20;3.33;;;;;;;2.07;100.00;96723.09;5039010;28;20205;-88
2022/01/09 01:14:03;;;;;;;4.90;3.47;;;;;;;2.06;100.00;96724.03;5037081;28;20252;-87
2022/01/09 01:16:32;;;;;;;5.60;3.43;;;;;;;2.06;100.00;96723.22;5033706;28;20244;-88
2022/01/09 01:19:02;;;;;;;5.77;3.50;;;;;;;2.06;100.00;96726.66;5037044;28;20348;-87
2022/01/09 01:21:32;;;;;;;4.87;3.43;;;;;;;2.14;100.00;96718.31;5022480;28;20205;-87
2022/01/09 01:24:01;;;;;;;3.67;3.37;;;;;;;2.18;100.00;96712.75;4991528;28;20230;-87
2022/01/09 01:26:32;;;;;;;5.10;2.90;;;;;;;2.19;100.00;96711.81;4993404;28;20223;-86
2022/01/09 01:29:04;;;;;;;3.10;2.77;;;;;;;2.17;100.00;96699.81;4930024;28;20286;-87
2022/01/09 01:31:32;;;;;;;5.77;4.03;;;;;;;2.12;100.00;96705.34;4974727;28;20202;-87
2022/01/09 01:34:12;;;;;;;5.47;3.10;;;;;;;2.13;100.00;96700.97;4978066;28;20196;-87
2022/01/09 01:36:40;;;;;;;3.63;2.80;;;;;;;2.21;100.00;96696.84;4977874;28;20192;-85
2022/01/09 01:39:09;;;;;;;4.60;3.10;;;;;;;2.25;100.00;96694.88;4970747;28;20270;-86
2022/01/09 01:41:39;;;;;;;5.00;3.13;;;;;;;2.28;100.00;96700.72;4977466;28;20657;-86
2022/01/09 01:44:10;;;;;;;4.50;2.93;;;;;;;2.27;100.00;96687.78;5014292;28;20222;-84
2022/01/09 01:46:39;;;;;;;3.93;2.80;;;;;;;2.30;100.00;96683.16;5049959;28;20240;-86
2022/01/09 01:49:10;;;;;;;5.73;3.07;;;;;;;2.31;100.00;96686.59;5113844;28;20202;-85
2022/01/09 01:51:41;;;;;;;3.10;2.80;;;;;;;2.27;100.00;96688.59;5106232;28;20211;-84
2022/01/09 01:54:12;;;;;;;4.00;3.00;;;;;;;2.30;100.00;96684.94;5062720;28;20203;-85
2022/01/09 01:56:42;;;;;;;3.43;3.00;;;;;;;2.29;100.00;96680.66;5064801;28;20262;-85
2022/01/09 01:59:10;;;;;;;4.87;3.20;;;;;;;2.26;100.00;96679.09;5075347;28;20188;-86
2022/01/09 02:01:39;;;;;;;4.57;2.80;;;;;;;2.25;100.00;96682.66;5074268;28;20204;-86
2022/01/09 02:04:07;;;;;;;4.07;3.10;;;;;;;2.32;100.00;96674.38;5066553;28;20212;-86
2022/01/09 02:06:37;;;;;;;3.47;3.07;;;;;;;2.26;100.00;96668.66;5070868;28;20192;-85
2022/01/09 02:09:05;;;;;;;3.17;2.70;;;;;;;2.27;100.00;96675.56;5063763;28;20242;-85
2022/01/09 02:11:35;;;;;;;3.13;2.73;;;;;;;2.21;100.00;96675.97;5035858;28;20282;-85
2022/01/09 02:14:05;;;;;;;3.50;3.07;;;;;;;2.29;100.00;96671.03;5069209;28;20250;-86
2022/01/09 02:16:35;;;;;;;3.97;3.47;;;;;;;2.22;100.00;96669.84;5070197;28;20208;-86
2022/01/09 02:19:08;;;;;;;4.20;3.40;;;;;;;2.24;100.00;96664.50;5068563;28;20195;-85
2022/01/09 02:21:41;;;;;;;3.53;3.10;;;;;;;2.25;100.00;96667.00;5069377;28;20206;-85
2022/01/09 02:24:09;;;;;;;4.83;3.37;;;;;;;2.20;100.00;96663.88;5028803;28;20224;-84
2022/01/09 02:26:37;;;;;;;4.93;3.10;;;;;;;2.09;100.00;96658.56;5025158;28;20202;-84
2022/01/09 02:29:06;;;;;;;4.40;3.40;;;;;;;2.04;100.00;96650.25;5032009;28;20204;-84
2022/01/09 02:31:36;;;;;;;2.97;2.43;;;;;;;1.99;100.00;96652.31;5065856;28;20203;-85
2022/01/09 02:34:05;;;;;;;3.20;2.60;;;;;;;1.99;100.00;96652.31;5070496;28;20192;-86
2022/01/09 02:36:33;;;;;;;3.50;2.33;;;;;;;2.01;100.00;96664.31;5065716;28;20199;-85
2022/01/09 02:39:04;;;;;;;3.03;2.63;;;;;;;1.98;100.00;96658.50;5085537;28;20189;-80
2022/01/09 02:41:32;;;;;;;3.53;2.40;;;;;;;1.95;100.00;96654.31;5097057;28;20258;-82
2022/01/09 02:44:08;;;;;;;2.83;2.50;;;;;;;1.91;100.00;96652.84;5130749;28;20262;-81
2022/01/09 02:46:51;;;;;;;3.27;2.73;;;;;;;1.96;100.00;96658.59;5107215;28;20238;-85
2022/01/09 02:49:19;;;;;;;3.47;2.43;;;;;;;1.89;100.00;96665.19;5115643;28;20198;-85
2022/01/09 02:51:48;;;;;;;3.90;2.53;;;;;;;1.85;100.00;96652.47;5104641;28;20240;-84
2022/01/09 02:57:03;;;;;;;2.93;2.50;;;;;;;1.75;100.00;96661.88;5118439;28;20228;-85
2022/01/09 02:59:33;;;;;;;3.17;2.70;;;;;;;1.77;100.00;96654.78;5047988;28;20204;-85
2022/01/09 03:02:02;;;;;;;2.77;2.50;;;;;;;1.77;100.00;96662.59;5047286;28;20234;-86
2022/01/09 03:04:31;;;;;;;3.90;2.47;;;;;;;1.77;100.00;96662.59;5045825;28;20219;-86
2022/01/09 03:06:59;;;;;;;2.77;2.50;;;;;;;1.82;100.00;96656.09;5011468;28;20201;-87
2022/01/09 03:09:37;;;;;;;3.00;2.60;;;;;;;1.87;100.00;96658.41;5054522;28;20189;-86
2022/01/09 03:12:07;;;;;;;3.00;2.70;;;;;;;1.83;100.00;96664.75;5045231;28;20215;-86
2022/01/09 03:14:38;;;;;;;5.17;3.70;;;;;;;1.85;100.00;96661.13;5051306;28;20200;-86
2022/01/09 03:17:10;;;;;;;5.20;2.60;;;;;;;1.92;100.00;96658.91;5007821;28;20212;-85
2022/01/09 03:19:45;;;;;;;4.40;2.87;;;;;;;1.97;100.00;96649.00;5008892;28;20202;-86
2022/01/09 03:22:15;;;;;;;4.43;2.70;;;;;;;2.06;100.00;96647.53;5007058;28;20193;-84
2022/01/09 03:24:45;;;;;;;3.33;2.40;;;;;;;2.07;100.00;96651.78;4951507;29;20228;-86
2022/01/09 03:27:16;;;;;;;3.93;2.67;;;;;;;2.14;100.00;96661.69;4950740;29;20252;-86
2022/01/09 03:29:47;;;;;;;3.27;2.57;;;;;;;2.17;100.00;96658.88;4937436;29;20250;-86
2022/01/09 03:32:15;;;;;;;3.17;2.80;;;;;;;2.17;100.00;96658.03;4944976;29;20660;-85
2022/01/09 03:34:44;;;;;;;3.53;3.13;;;;;;;2.25;100.00;96656.56;4949895;29;20205;-85
2022/01/09 03:37:13;;;;;;;3.33;3.03;;;;;;;2.21;100.00;96656.84;4949731;29;20208;-86
2022/01/09 03:39:48;;;;;;;4.17;3.50;;;;;;;2.30;100.00;96657.03;4949231;29;20232;-85
2022/01/09 03:42:16;;;;;;;4.30;3.77;;;;;;;2.35;100.00;96661.13;4982358;28;20202;-84
2022/01/09 03:44:44;;;;;;;3.70;3.23;;;;;;;2.35;100.00;96656.72;4992594;28;20250;-85
2022/01/09 03:47:13;;;;;;;4.90;4.10;;;;;;;2.33;100.00;96652.56;5003055;28;20230;-83
2022/01/09 03:49:46;;;;;;;7.83;3.90;;;;;;;2.42;100.00;96659.75;4999875;28;20199;-85
2022/01/09 03:52:14;;;;;;;4.67;3.27;;;;;;;2.49;100.00;96653.94;4985206;28;20211;-85
2022/01/09 03:54:42;;;;;;;6.17;4.20;;;;;;;2.45;100.00;96651.69;4991751;28;20253;-85
2022/01/09 03:57:14;;;;;;;5.40;3.80;;;;;;;2.41;100.00;96661.50;5008263;28;20298;-85
2022/01/09 03:59:42;;;;;;;4.37;3.83;;;;;;;2.47;100.00;96655.84;5004680;28;20249;-83
2022/01/09 04:02:11;;;;;;;4.43;3.97;;;;;;;2.45;100.00;96660.34;5010578;28;20240;-84
2022/01/09 04:04:41;;;;;;;5.00;4.50;;;;;;;2.45;100.00;96660.34;5011309;28;20225;-85
2022/01/09 04:07:11;;;;;;;4.73;4.23;;;;;;;2.52;100.00;96672.03;5052310;28;20199;-84
2022/01/09 04:09:40;;;;;;;5.60;4.80;;;;;;;2.53;100.00;96663.25;5068270;28;20188;-85
2022/01/09 04:12:17;;;;;;;6.03;5.23;;;;;;;2.55;100.00;96670.97;5068510;28;20201;-84
2022/01/09 04:14:47;;;;;;;6.93;5.17;;;;;;;2.55;100.00;96669.19;5072408;28;20330;-85
2022/01/09 04:17:23;;;;;;;6.30;5.27;;;;;;;2.61;100.00;96672.31;5070296;28;20203;-84
2022/01/09 04:19:53;;;;;;;7.50;5.27;;;;;;;2.61;100.00;96677.56;4992505;28;20230;-84
2022/01/09 04:22:21;;;;;;;6.03;5.33;;;;;;;2.56;100.00;96680.47;4984431;28;20206;-84
2022/01/09 04:24:50;;;;;;;6.00;5.40;;;;;;;2.65;100.00;96674.59;4982974;28;20199;-85
2022/01/09 04:27:21;;;;;;;7.07;5.20;;;;;;;2.57;100.00;96687.38;4985383;28;20278;-85
2022/01/09 04:29:49;;;;;;;5.97;5.37;;;;;;;2.56;100.00;96694.38;4955399;28;20224;-85
2022/01/09 04:32:18;;;;;;;6.10;4.93;;;;;;;2.54;100.00;96696.25;4949699;29;20204;-85
2022/01/09 04:34:46;;;;;;;5.37;4.83;;;;;;;2.65;100.00;96705.13;4953930;29;20224;-85
2022/01/09 04:37:15;;;;;;;5.30;4.40;;;;;;;2.75;100.00;96700.91;4961284;28;20209;-85
2022/01/09 04:39:46;;;;;;;5.00;4.50;;;;;;;2.67;100.00;96700.59;5026943;28;20205;-85
2022/01/09 04:42:17;;;;;;;4.77;4.27;;;;;;;2.78;100.00;96703.28;5066272;28;20230;-85
2022/01/09 04:44:48;;;;;;;4.67;4.10;;;;;;;2.72;100.00;96699.34;5067935;28;20214;-85
2022/01/09 04:47:17;;;;;;;4.67;4.07;;;;;;;2.78;100.00;96706.72;5075791;28;20202;-85
2022/01/09 04:49:47;;;;;;;4.43;3.97;;;;;;;2.59;100.00;96715.03;5107733;28;20191;-85
2022/01/09 04:52:19;;;;;;;4.40;3.67;;;;;;;2.67;100.00;96730.19;5107216;28;20193;-84
2022/01/09 04:54:48;;;;;;;3.93;3.53;;;;;;;2.66;100.00;96733.75;5110758;28;20248;-85
2022/01/09 04:57:17;;;;;;;3.47;3.13;;;;;;;2.78;100.00;96748.53;5110663;28;20207;-84
2022/01/09 04:59:48;;;;;;;2.50;2.30;;;;;;;2.84;100.00;96748.09;5105273;28;20668;-84
2022/01/09 05:02:16;;;;;;;2.33;1.87;;;;;;;2.93;100.00;96753.63;5102229;28;20378;-84
2022/01/09 05:04:44;;;;;;;1.90;1.70;;;;;;;2.97;100.00;96755.88;5110604;28;20191;-85
2022/01/09 05:07:14;;;;;;;1.60;1.47;;;;;;;2.95;100.00;96751.72;5107728;28;20222;-85
2022/01/09 05:09:43;;;;;;;1.27;1.10;;;;;;;3.06;100.00;96754.38;5102739;28;20198;-85
2022/01/09 05:12:13;;;;;;;1.10;1.00;;;;;;;3.03;100.00;96763.31;5108496;28;20263;-84
2022/01/09 05:14:42;;;;;;;2.30;1.00;;;;;;;2.99;100.00;96768.84;5105945;28;20203;-85
2022/01/09 05:17:13;;;;;;;0.63;0.63;;;;;;;3.03;100.00;96786.00;5110947;28;20194;-85
2022/01/09 05:19:43;;;;;;;0.87;0.87;;;;;;;2.94;100.00;96784.88;5070112;28;20202;-85
2022/01/09 05:22:11;;;;;;;0.70;0.70;;;;;;;2.97;100.00;96781.19;5065738;28;20204;-84
2022/01/09 05:24:40;;;;;;;1.17;0.70;;;;;;;2.85;100.00;96801.22;5059201;28;20230;-84
2022/01/09 05:27:10;;;;;;;0.90;0.57;;;;;;;2.87;100.00;96800.16;5064014;28;20279;-85
2022/01/09 05:29:38;;;;;;;0.70;0.60;;;;;;;2.76;100.00;96818.38;5070090;28;20220;-85
2022/01/09 05:32:13;;;;;;;0.40;0.40;;;;;;;2.75;100.00;96823.72;5059263;28;20207;-84
2022/01/09 05:34:47;;;;;;;0.30;0.30;;;;;;;2.67;100.00;96813.78;5061333;28;20226;-85
2022/01/09 05:37:17;;;;;;;0.40;0.40;;;;;;;2.63;100.00;96822.81;5073137;28;20200;-85
2022/01/09 05:39:46;;;;;;;0.40;0.40;;;;;;;2.55;100.00;96828.56;5032005;28;20204;-84
2022/01/09 05:42:16;;;;;;;0.30;0.30;;;;;;;2.51;100.00;96834.06;5063843;28;20246;-85
2022/01/09 05:44:47;;;;;;;0.40;0.40;;;;;;;2.53;100.00;96842.66;5082133;28;20236;-85
2022/01/09 05:47:16;;;;;;;0.73;0.37;;;;;;;2.42;100.00;96845.19;5086578;28;20216;-85
2022/01/09 05:49:45;;;;;;;0.73;0.40;;;;;;;2.42;100.00;96861.69;5084792;28;20206;-85
2022/01/09 05:52:14;;;;;;;0.30;0.30;;;;;;;2.32;100.00;96860.66;5084838;28;20192;-85
2022/01/09 05:54:43;;;;;;;0.37;0.30;;;;;;;2.36;100.00;96869.09;5081617;28;20195;-84
2022/01/09 05:57:14;;;;;;;0.30;0.30;;;;;;;2.32;100.00;96878.06;5087921;28;20203;-85
2022/01/09 05:59:46;;;;;;;0.70;0.33;;;;;;;2.43;100.00;96884.25;5029316;28;20197;-84
2022/01/09 06:02:16;;;;;;;0.30;0.30;;;;;;;2.41;100.00;96903.56;5026044;28;20205;-85
2022/01/09 06:04:44;;;;;;;0.40;0.40;;;;;;;2.33;100.00;96898.03;5024772;28;20198;-85
2022/01/09 06:07:15;;;;;;;0.43;0.30;;;;;;;2.32;100.00;96906.78;5026741;28;20800;-84
2022/01/09 06:09:44;;;;;;;0.30;0.30;;;;;;;2.30;100.00;96906.91;5020775;28;20234;-85
2022/01/09 06:12:12;;;;;;;0.37;0.37;;;;;;;2.21;100.00;96908.34;5023548;28;20200;-85
2022/01/09 06:14:42;;;;;;;0.40;0.40;;;;;;;2.19;100.00;96925.91;5023567;28;20252;-85
2022/01/09 06:17:13;;;;;;;0.40;0.40;;;;;;;2.25;100.00;96933.34;5040358;28;20275;-84
2022/01/09 06:19:43;;;;;;;0.40;0.40;;;;;;;2.19;100.00;96945.94;5086401;28;20223;-85
2022/01/09 06:22:17;;;;;;;0.50;0.40;;;;;;;2.29;100.00;96947.00;5080643;28;20195;-85
2022/01/09 06:24:50;;;;;;;0.30;0.30;;;;;;;2.24;100.00;96952.56;5087398;28;20278;-84
2022/01/09 06:27:19;;;;;;;0.30;0.30;;;;;;;2.32;100.00;96956.41;5086506;28;20260;-84
2022/01/09 06:29:48;;;;;;;0.30;0.30;;;;;;;2.16;100.00;96972.28;5104587;28;20709;-85
2022/01/09 06:32:16;;;;;;;0.50;0.40;;;;;;;2.17;100.00;96977.38;5119890;28;20187;-81
2022/01/09 06:34:46;;;;;;;0.40;0.40;;;;;;;2.27;100.00;96981.06;5127177;28;20195;-82
2022/01/09 06:37:17;;;;;;;0.40;0.40;;;;;;;2.11;100.00;96985.59;5029932;28;20192;-84
2022/01/09 06:39:48;;;;;;;0.40;0.40;;;;;;;2.07;100.00;96985.91;5021191;28;20217;-84
2022/01/09 06:42:17;;;;;;;0.30;0.30;;;;;;;1.99;100.00;96997.69;5004647;28;20187;-84
2022/01/09 06:44:46;;;;;;;0.60;0.40;;;;;;;1.99;100.00;96997.69;4892952;29;20217;-84
2022/01/09 06:47:17;;;;;;;0.30;0.30;;;;;;;2.10;100.00;97017.88;4895115;29;20720;-83
2022/01/09 06:49:48;;;;;;;0.30;0.30;;;;;;;1.99;100.00;97028.19;4896821;29;20199;-85
2022/01/09 06:52:16;;;;;;;0.30;0.30;;;;;;;2.06;100.00;97024.25;4895248;29;20205;-85
2022/01/09 06:54:45;;;;;;;0.30;0.30;;;;;;;2.01;100.00;97031.53;4911861;28;20191;-84
2022/01/09 06:57:14;;;;;;;1.03;0.40;;;;;;;1.85;100.00;97044.72;4987117;28;20278;-84
2022/01/09 06:59:43;;;;;;;0.30;0.30;;;;;;;1.97;100.00;97048.31;4984678;28;20203;-85
2022/01/09 07:02:12;;;;;;;0.33;0.30;;;;;;;1.93;100.00;97058.13;4876244;29;20210;-84
2022/01/09 07:04:41;;;;;;;0.40;0.40;;;;;;;1.94;100.00;97059.81;4874034;29;20243;-84
2022/01/09 07:07:11;;;;;;;0.57;0.47;;;;;;;2.04;100.00;97056.59;4877618;29;20254;-85
2022/01/09 07:09:41;;;;;;;0.40;0.40;;;;;;;2.05;100.00;97058.28;4940996;28;20229;-84
2022/01/09 07:12:10;;;;;;;0.47;0.47;;;;;;;2.02;100.00;97069.72;4983931;28;20199;-84
2022/01/09 07:14:39;;;;;;;0.80;0.50;;;;;;;2.16;100.00;97084.53;4985665;28;20666;-84
2022/01/09 07:17:08;;;;;;;0.57;0.53;;;;;;;2.22;100.00;97094.56;4985142;28;20207;-84
2022/01/09 07:19:37;;;;;;;0.50;0.50;;;;;;;2.27;100.00;97095.13;4993746;28;20284;-85
2022/01/09 07:22:06;;;;;;;0.70;0.53;;;;;;;2.34;100.00;97103.44;5025396;28;20201;-84
2022/01/09 07:24:37;;;;;;;0.53;0.53;;;;;;;2.36;100.00;97107.59;5023897;28;20193;-84
2022/01/09 07:27:07;;;;;;;0.70;0.60;;;;;;;2.33;100.00;97118.25;5068926;28;20738;-84
2022/01/09 07:29:36;;;;;;;0.80;0.80;;;;;;;2.40;100.00;97118.69;5107977;28;20223;-85
2022/01/09 07:32:05;;;;;;;1.67;0.93;;;;;;;2.53;100.00;97136.09;5047665;28;20186;-84
2022/01/09 07:34:34;;;;;;;0.60;0.57;;;;;;;2.62;100.00;97139.06;5040953;28;20664;-84
2022/01/09 07:37:02;;;;;;;1.63;0.90;;;;;;;2.46;100.00;97144.44;5043475;28;20197;-85
2022/01/09 07:39:31;;;;;;;10.33;4.77;;;;;;;2.47;100.00;97143.50;4969647;28;20206;-84
2022/01/09 07:42:02;;;;;;;3.63;2.07;;;;;;;2.60;100.00;97149.59;4971139;28;20204;-85
2022/01/09 07:44:31;;;;;;;5.03;1.20;;;;;;;2.74;100.00;97165.22;4969874;28;20204;-85
2022/01/09 07:46:59;;;;;;;12.33;7.17;;;;;;;2.74;100.00;97175.69;4970141;28;20817;-85
2022/01/09 07:49:28;;;;;;;13.03;8.50;;;;;;;2.68;100.00;97170.84;4966221;28;20220;-83
2022/01/09 07:51:57;;;;;;;13.33;9.87;;;;;;;2.67;100.00;97181.41;4967685;28;20211;-85
2022/01/09 07:54:25;;;;;;;6.03;3.70;;;;;;;2.75;100.00;97187.81;4968754;28;20219;-85
2022/01/09 07:56:54;;;;;;;6.70;2.37;;;;;;;2.87;100.00;97202.69;4972756;28;20200;-85
2022/01/09 07:59:25;;;;;;;4.50;3.40;;;;;;;2.76;100.00;97197.31;5007934;28;20206;-85
2022/01/09 08:01:57;;;;;;;6.60;3.77;;;;;;;2.84;100.00;97212.53;5007714;28;20269;-85
2022/01/09 08:04:26;;;;;;;6.20;4.70;;;;;;;3.00;100.00;97209.78;5009640;28;20199;-82
2022/01/09 08:06:54;;;;;;;6.10;2.70;;;;;;;3.12;100.00;97224.66;5007843;28;20202;-84
2022/01/09 08:09:24;;;;;;;7.87;2.20;;;;;;;3.13;100.00;97221.09;5021695;28;20267;-85
2022/01/09 08:11:53;;;;;;;6.63;2.73;;;;;;;3.16;100.00;97228.75;5070840;28;20196;-85
2022/01/09 08:14:21;;;;;;;7.67;3.20;;;;;;;3.20;100.00;97235.47;5069423;28;20249;-84
2022/01/09 08:16:51;;;;;;;13.63;11.10;;;;;;;3.22;100.00;97248.44;5066431;28;20203;-84
2022/01/09 08:19:19;;;;;;;7.20;4.20;;;;;;;3.33;100.00;97251.19;5012129;28;20210;-85
2022/01/09 08:21:48;;;;;;;12.13;4.97;;;;;;;3.32;100.00;97260.81;5007437;28;20256;-85
2022/01/09 08:24:17;;;;;;;37.73;30.47;;;;;;;3.34;100.00;97261.53;4971974;28;20328;-84
2022/01/09 08:26:47;;;;;;;8.80;3.70;;;;;;;3.51;100.00;97273.53;4973807;28;20204;-84
2022/01/09 08:29:22;;;;;;;12.90;4.30;;;;;;;3.51;100.00;97275.31;4967716;28;20227;-85
2022/01/09 08:31:53;;;;;;;6.90;2.93;;;;;;;3.56;100.00;97279.28;4989733;28;20203;-85
2022/01/09 08:34:24;;;;;;;14.03;4.53;;;;;;;3.51;100.00;97289.22;4960049;28;20208;-85
2022/01/09 08:36:52;;;;;;;13.20;4.17;;;;;;;3.61;100.00;97297.31;5007851;28;20194;-85
2022/01/09 08:39:21;;;;;;;8.80;3.70;;;;;;;3.66;100.00;97288.19;5050394;28;20199;-84
2022/01/09 08:41:49;;;;;;;8.80;3.70;;;;;;;3.67;100.00;97307.38;5051269;28;20421;-84
2022/01/09 08:44:18;;;;;;;13.13;4.10;;;;;;;3.78;100.00;97301.44;5045930;28;20227;-85
2022/01/09 08:46:49;;;;;;;10.43;3.30;;;;;;;3.85;100.00;97305.31;5049186;28;20185;-85
2022/01/09 08:49:27;;;;;;;16.17;4.17;;;;;;;3.84;100.00;97316.72;4972530;28;20227;-84
2022/01/09 08:51:55;;;;;;;10.77;3.97;;;;;;;3.86;100.00;97317.44;4971905;28;20203;-85
2022/01/09 08:54:24;;;;;;;14.53;3.83;;;;;;;3.85;100.00;97318.41;4969518;28;20208;-85
2022/01/09 08:56:56;;;;;;;9.10;3.57;;;;;;;3.97;100.00;97326.28;5032141;28;20194;-85
2022/01/09 08:59:25;;;;;;;11.50;3.50;;;;;;;3.92;100.00;97327.53;5028205;28;20193;-85
2022/01/09 09:01:54;;;;;;;9.20;3.50;;;;;;;4.02;100.00;97339.06;5024503;28;20247;-85
2022/01/09 09:04:26;;;;;;;9.73;3.53;;;;;;;3.88;100.00;97347.84;5031268;28;20202;-85
2022/01/09 09:06:56;;;;;;;11.57;3.90;;;;;;;3.91;100.00;97352.03;5026763;28;20193;-85
2022/01/09 09:09:25;;;;;;;17.20;7.80;;;;;;;3.93;100.00;97353.59;5023936;28;20214;-85
2022/01/09 09:11:53;;;;;;;13.83;4.00;;;;;;;3.93;100.00;97358.84;5030726;28;20669;-85
2022/01/09 09:14:23;;;;;;;13.77;3.13;;;;;;;3.88;100.00;97363.56;5030398;28;20755;-85
2022/01/09 09:16:52;;;;;;;13.57;3.20;;;;;;;3.90;100.00;97364.28;5030136;28;20205;-85
2022/01/09 09:19:22;;;;;;;15.03;4.10;;;;;;;3.92;100.00;97366.81;5030326;28;20273;-85
2022/01/09 09:22:01;;;;;;;9.53;3.70;;;;;;;3.88;100.00;97374.03;5032249;28;20217;-84
2022/01/09 09:24:30;;;;;;;12.40;4.43;;;;;;;3.88;100.00;97395.00;5029996;28;20684;-85
2022/01/09 09:26:58;;;;;;;14.17;4.37;;;;;;;3.98;100.00;97396.06;5026435;28;20200;-85
2022/01/09 09:29:31;;;;;;;13.40;3.73;;;;;;;3.97;100.00;97401.41;5025026;28;20226;-84
2022/01/09 09:32:02;;;;;;;15.43;4.10;;;;;;;3.94;100.00;97415.50;5028193;28;20189;-85
2022/01/09 09:34:30;;;;;;;15.73;4.30;;;;;;;4.02;100.00;97421.09;5032346;28;20189;-82
2022/01/09 09:37:05;;;;;;;12.20;3.53;;;;;;;3.97;100.00;97420.56;5050061;28;20188;-84
2022/01/09 09:39:37;;;;;;;6.87;3.00;;;;;;;3.95;100.00;97424.22;4970943;28;20754;-85
2022/01/09 09:42:06;;;;;;;12.13;4.00;;;;;;;3.92;100.00;97427.88;4933103;29;20194;-84
2022/01/09 09:44:37;;;;;;;14.00;3.70;;;;;;;3.83;100.00;97431.09;4931857;29;20252;-84
2022/01/09 09:47:08;;;;;;;11.97;3.67;;;;;;;3.93;100.00;97437.41;4930020;29;20197;-85
2022/01/09 09:49:40;;;;;;;15.63;4.23;;;;;;;3.78;100.00;97443.66;4872991;29;20238;-85
2022/01/09 09:52:15;;;;;;;9.10;3.30;;;;;;;3.86;100.00;97448.38;4858163;29;20204;-85
2022/01/09 09:54:43;;;;;;;12.10;4.20;;;;;;;3.81;100.00;97451.31;4854591;29;20206;-85
2022/01/09 09:57:12;;;;;;;12.17;3.50;;;;;;;3.79;100.00;97460.19;4855055;29;20216;-84
2022/01/09 09:59:43;;;;;;;10.63;3.43;;;;;;;3.87;100.00;97452.69;4902339;29;20205;-84
2022/01/09 10:02:18;;;;;;;11.10;3.63;;;;;;;3.84;100.00;97460.72;4899570;29;20280;-86
2022/01/09 10:05:02;;;;;;;10.67;4.10;;;;;;;3.78;100.00;97476.84;4972923;28;20201;-86
2022/01/09 10:07:34;;;;;;;10.87;3.43;;;;;;;3.83;100.00;97478.22;4993531;28;20203;-85
2022/01/09 10:10:09;;;;;;;10.80;3.53;;;;;;;3.92;100.00;97479.41;5000240;28;20256;-85
2022/01/09 10:12:40;;;;;;;10.60;3.43;;;;;;;3.99;100.00;97488.56;5030068;28;20201;-85
2022/01/09 10:15:11;;;;;;;11.97;2.87;;;;;;;3.93;100.00;97489.78;5098402;28;20199;-85
2022/01/09 10:17:43;;;;;;;9.57;3.30;;;;;;;4.05;100.00;97487.31;5029496;28;20212;-85
2022/01/09 10:20:14;;;;;;;11.57;3.10;;;;;;;4.01;100.00;97498.00;5029553;28;20207;-84
2022/01/09 10:22:46;;;;;;;11.43;3.43;;;;;;;4.00;100.00;97498.09;5026629;28;20684;-85
2022/01/09 10:25:27;;;;;;;12.77;3.37;;;;;;;4.07;100.00;97504.63;5029002;28;20209;-85
2022/01/09 10:28:02;;;;;;;7.63;2.87;;;;;;;4.01;100.00;97502.41;5035461;28;20215;-85
2022/01/09 10:30:33;;;;;;;9.97;3.50;;;;;;;3.99;100.00;97506.91;4993925;28;20252;-85
2022/01/09 10:33:06;;;;;;;12.00;3.23;;;;;;;4.08;100.00;97508.94;5030233;28;20209;-85
2022/01/09 10:35:38;;;;;;;12.63;3.10;;;;;;;4.06;100.00;97512.59;5044780;28;20187;-85
2022/01/09 10:38:15;;;;;;;9.37;3.03;;;;;;;4.09;100.00;97517.63;5077128;28;20200;-84
2022/01/09 10:40:49;;;;;;;8.10;3.53;;;;;;;4.01;100.00;97516.31;5049338;28;20196;-85
2022/01/09 10:43:20;;;;;;;10.43;3.33;;;;;;;4.06;100.00;97521.28;5034776;28;20197;-81
2022/01/09 10:45:58;;;;;;;12.23;3.10;;;;;;;4.08;100.00;97529.03;5054344;28;20202;-82
2022/01/09 10:48:34;;;;;;;9.20;2.83;;;;;;;4.12;100.00;97533.97;5050473;28;20204;-83
2022/01/09 10:51:05;;;;;;;9.13;2.97;;;;;;;4.09;100.00;97538.59;5047710;28;20197;-81
2022/01/09 10:53:37;;;;;;;7.60;2.13;;;;;;;4.20;100.00;97539.56;5047932;28;20265;-83
2022/01/09 10:56:12;;;;;;;9.63;2.53;;;;;;;4.24;100.00;97548.06;5054391;28;20241;-83
2022/01/09 10:58:43;;;;;;;9.43;2.63;;;;;;;4.27;100.00;97548.72;5062119;28;20224;-84
2022/01/09 11:01:18;;;;;;;8.77;3.00;;;;;;;4.34;100.00;97543.06;5113045;28;20327;-85
2022/01/09 11:07:07;;;;;;;10.77;2.87;;;;;;;4.28;100.00;97554.81;5134292;28;20183;-83
2022/01/09 11:10:17;;;;;;;10.93;2.63;;;;;;;4.38;100.00;97558.50;5113124;28;20226;-85
2022/01/09 11:12:58;;;;;;;12.60;6.97;;;;;;;4.15;100.00;97560.00;5118875;28;20222;-86
2022/01/09 11:19:12;;;;;;;9.73;3.77;;;;;;;4.39;100.00;97567.22;5065764;28;20332;-85
2022/01/09 11:21:45;;;;;;;8.97;2.80;;;;;;;4.38;100.00;97569.00;5058806;28;20200;-85
2022/01/09 11:24:31;;;;;;;10.47;2.97;;;;;;;4.47;100.00;97578.88;5061451;28;20189;-84
2022/01/09 11:27:11;;;;;;;10.57;2.80;;;;;;;4.62;100.00;97570.94;5055954;28;20193;-85
2022/01/09 11:29:48;;;;;;;8.20;3.13;;;;;;;4.41;100.00;97579.25;5051114;28;20244;-85
2022/01/09 11:32:40;;;;;;;6.40;2.67;;;;;;;4.57;100.00;97584.38;4985710;28;20195;-85
2022/01/09 11:35:18;;;;;;;8.27;2.83;;;;;;;4.60;100.00;97573.66;4974497;28;20278;-84
2022/01/09 11:37:57;;;;;;;7.23;2.87;;;;;;;4.71;100.00;97576.44;4972247;28;20207;-85
2022/01/09 11:40:28;;;;;;;9.57;2.83;;;;;;;4.93;100.00;97580.28;4976564;28;20292;-84
2022/01/09 11:43:06;;;;;;;6.33;2.43;;;;;;;4.93;100.00;97580.28;4971508;28;20202;-85
2022/01/09 11:45:49;;;;;;;11.83;2.77;;;;;;;5.25;100.00;97589.44;4970183;28;20204;-85
2022/01/09 11:48:20;;;;;;;8.60;3.30;;;;;;;5.15;100.00;97583.13;4973074;28;20202;-84
2022/01/09 11:51:10;;;;;;;9.30;3.00;;;;;;;5.08;100.00;97584.47;5086595;28;20226;-84
2022/01/09 11:54:04;;;;;;;8.27;2.40;;;;;;;5.24;100.00;97587.75;5078720;28;20199;-84
2022/01/09 11:56:47;;;;;;;6.07;2.00;;;;;;;5.18;100.00;97596.03;5107653;28;20396;-85
2022/01/09 11:59:51;;;;;;;6.70;2.23;;;;;;;5.24;100.00;97587.75;5117533;28;20260;-84